Time;durP1;ratioP1;P1;durP2;ratioP2;P2;SDS_P1;SDS_P2;PMS_P1;PMS_P2;Temp;Humidity;BMP_temperature;BMP_pressure;BME280_temperature;BME280_humidity;BME280_pressure;Samples;Min_cycle;Max_cycle;Signal;HPM_P1;HPM_P2
2022/03/23 00:00:30;;;;;;;;;44.00;37.40;;;;;14.82;37.51;102162.09;5058000;28;45990;-58
2022/03/23 00:02:55;;;;;;;;;47.25;33.00;;;;;14.82;37.30;102164.88;5057914;28;45252;-53
2022/03/23 00:05:21;;;;;;;;;48.75;37.75;;;;;14.81;37.33;102163.16;5058204;28;45318;-55
2022/03/23 00:07:46;;;;;;;;;50.75;41.00;;;;;14.80;36.92;102178.91;5058104;28;45531;-56
2022/03/23 00:10:12;;;;;;;;;45.75;36.00;;;;;14.77;36.76;102169.13;5035985;28;46463;-56
2022/03/23 00:12:37;;;;;;;;;55.75;39.25;;;;;14.76;37.31;102174.84;5049076;28;45634;-56
2022/03/23 00:15:03;;;;;;;;;47.25;35.00;;;;;14.75;37.05;102176.78;5057847;28;45459;-57
2022/03/23 00:17:28;;;;;;;;;43.50;35.50;;;;;14.66;37.30;102169.66;5058269;28;45775;-57
2022/03/23 00:19:54;;;;;;;;;49.50;37.25;;;;;14.71;36.82;102182.84;5057390;28;45437;-54
2022/03/23 00:22:20;;;;;;;;;45.25;36.75;;;;;14.63;37.32;102170.09;5058013;28;45501;-49
2022/03/23 00:24:46;;;;;;;;;49.80;39.40;;;;;14.65;36.98;102187.31;5057583;28;45404;-54
2022/03/23 00:27:11;;;;;;;;;45.50;35.75;;;;;14.44;37.17;102147.66;5058166;28;45309;-56
2022/03/23 00:29:37;;;;;;;;;39.25;35.75;;;;;14.62;36.99;102190.50;5057275;28;46838;-57
2022/03/23 00:32:04;;;;;;;;;47.00;37.50;;;;;14.59;36.57;102189.00;5057579;28;45314;-55
2022/03/23 00:34:29;;;;;;;;;45.20;35.80;;;;;14.58;36.76;102190.00;5057792;28;45360;-53
2022/03/23 00:36:55;;;;;;;;;49.00;35.75;;;;;14.57;37.37;102198.53;5057540;28;45547;-55
2022/03/23 00:39:22;;;;;;;;;51.50;36.25;;;;;14.50;37.34;102185.53;5057625;28;46460;-58
2022/03/23 00:41:49;;;;;;;;;42.60;36.20;;;;;14.55;36.72;102187.69;5057040;28;45477;-56
2022/03/23 00:44:15;;;;;;;;;48.80;37.20;;;;;14.23;36.67;102141.16;5064456;28;45397;-55
2022/03/23 00:46:40;;;;;;;;;48.60;38.40;;;;;14.00;37.17;102108.31;5057670;28;45603;-55
2022/03/23 00:49:09;;;;;;;;;48.50;38.00;;;;;14.45;37.51;102189.94;5057183;28;45327;-56
2022/03/23 00:51:35;;;;;;;;;43.20;36.60;;;;;14.44;37.15;102182.72;5039584;28;45367;-57
2022/03/23 00:54:00;;;;;;;;;50.25;38.50;;;;;14.44;37.30;102191.88;5057468;28;45309;-54
2022/03/23 00:56:26;;;;;;;;;43.50;36.25;;;;;14.42;37.12;102193.97;5056707;28;45498;-53
2022/03/23 00:58:52;;;;;;;;;49.50;37.50;;;;;14.37;37.27;102183.53;5038753;28;45419;-55
2022/03/23 01:01:17;;;;;;;;;47.75;36.25;;;;;14.38;37.20;102195.44;5056589;28;45358;-57
2022/03/23 01:03:43;;;;;;;;;46.00;39.50;;;;;14.34;37.21;102188.59;5039065;28;45456;-54
2022/03/23 01:06:08;;;;;;;;;47.25;37.25;;;;;14.32;36.69;102185.19;5057177;28;45445;-56
2022/03/23 01:08:34;;;;;;;;;49.25;37.00;;;;;14.02;37.28;102141.22;5056617;28;45984;-57
2022/03/23 01:11:00;;;;;;;;;46.50;38.75;;;;;14.28;36.65;102189.41;5046740;28;45391;-56
2022/03/23 01:13:25;;;;;;;;;43.50;36.50;;;;;14.10;36.74;102165.94;5055347;28;45317;-57
2022/03/23 01:15:51;;;;;;;;;34.00;27.75;;;;;14.03;36.47;102148.47;5054314;28;45595;-56
2022/03/23 01:18:17;;;;;;;;;45.50;35.50;;;;;14.15;36.57;102177.19;5056546;28;45480;-54
2022/03/23 01:20:42;;;;;;;;;49.00;37.00;;;;;14.18;36.88;102187.00;5072272;28;45387;-55
2022/03/23 01:23:08;;;;;;;;;40.50;35.50;;;;;14.21;37.10;102184.69;5056543;28;45251;-57
2022/03/23 01:25:33;;;;;;;;;46.80;35.60;;;;;14.20;36.53;102184.91;5072416;28;45592;-55
2022/03/23 01:27:59;;;;;;;;;35.75;32.50;;;;;14.17;36.69;102188.91;5056418;28;45370;-52
2022/03/23 01:30:25;;;;;;;;;44.00;35.00;;;;;14.13;37.09;102182.06;5056410;28;45473;-55
2022/03/23 01:32:51;;;;;;;;;41.60;36.20;;;;;13.91;36.58;102150.91;5056485;28;45371;-56
2022/03/23 01:35:16;;;;;;;;;40.50;34.00;;;;;14.10;36.42;102185.25;5056571;28;45419;-56
2022/03/23 01:37:43;;;;;;;;;38.50;34.25;;;;;14.02;36.36;102175.22;5056174;28;45986;-54
2022/03/23 01:40:09;;;;;;;;;41.20;32.20;;;;;14.00;35.91;102184.72;5056382;28;45442;-55
2022/03/23 01:42:35;;;;;;;;;34.00;31.20;;;;;13.94;36.19;102178.94;5055937;28;45285;-51
2022/03/23 01:45:01;;;;;;;;;34.50;33.00;;;;;13.91;35.58;102184.88;5038204;28;45580;-57
2022/03/23 01:47:26;;;;;;;;;42.00;34.25;;;;;13.62;36.16;102137.09;5055663;28;45904;-53
2022/03/23 01:49:53;;;;;;;;;29.00;21.75;;;;;13.90;36.29;102182.31;5056239;28;45360;-53
2022/03/23 01:52:20;;;;;;;;;33.40;32.40;;;;;13.86;35.57;102178.28;5055943;28;45390;-56
2022/03/23 01:54:46;;;;;;;;;32.60;31.00;;;;;13.83;36.01;102176.75;5038127;28;45584;-52
2022/03/23 01:57:13;;;;;;;;;30.25;29.50;;;;;13.79;36.14;102172.69;5038236;28;46684;-58
2022/03/23 01:59:39;;;;;;;;;34.00;32.00;;;;;13.79;35.83;102172.69;5056199;28;45471;-57
2022/03/23 02:02:05;;;;;;;;;34.50;32.00;;;;;13.76;35.35;102176.69;5038601;28;45410;-58
2022/03/23 02:04:30;;;;;;;;;36.25;30.50;;;;;13.69;35.56;102178.53;5056147;28;45420;-55
2022/03/23 02:06:56;;;;;;;;;36.75;31.50;;;;;13.52;35.33;102147.59;5055913;28;45827;-52
2022/03/23 02:09:21;;;;;;;;;31.25;30.25;;;;;13.57;34.89;102167.19;5056163;28;45425;-54
2022/03/23 02:11:47;;;;;;;;;31.25;31.00;;;;;13.54;35.44;102175.84;5038151;28;45451;-59
2022/03/23 02:14:13;;;;;;;;;37.25;29.50;;;;;13.44;35.42;102170.59;5056323;28;45168;-54
2022/03/23 02:16:42;;;;;;;;;36.00;31.00;;;;;13.37;35.64;102176.06;5037520;28;46339;-55
2022/03/23 02:19:08;;;;;;;;;37.40;31.20;;;;;13.29;35.97;102168.75;5056044;28;45618;-55
2022/03/23 02:21:34;;;;;;;;;38.00;34.00;;;;;13.24;35.64;102162.13;5056273;28;45458;-56
2022/03/23 02:24:00;;;;;;;;;27.60;24.80;;;;;13.27;35.61;102162.59;5056003;28;45338;-55
2022/03/23 02:26:26;;;;;;;;;34.40;29.80;;;;;13.08;35.96;102141.19;5037895;28;45388;-58
2022/03/23 02:28:53;;;;;;;;;31.50;30.75;;;;;13.26;35.95;102171.94;5037878;28;45429;-57
2022/03/23 02:31:19;;;;;;;;;31.20;30.40;;;;;13.27;36.00;102172.75;5055878;28;45279;-55
2022/03/23 02:33:45;;;;;;;;;38.50;35.50;;;;;13.27;36.04;102173.63;5054891;28;45342;-56
2022/03/23 02:36:11;;;;;;;;;36.60;32.40;;;;;12.99;36.11;102135.78;5055505;28;45879;-53
2022/03/23 02:38:37;;;;;;;;;37.50;28.50;;;;;13.18;36.25;102166.50;5055403;28;45393;-56
2022/03/23 02:41:03;;;;;;;;;42.60;33.40;;;;;13.19;35.45;102181.16;5055569;28;45430;-55
2022/03/23 02:43:29;;;;;;;;;37.20;33.60;;;;;13.19;36.11;102181.16;5055496;28;45417;-54
2022/03/23 02:45:54;;;;;;;;;33.50;32.00;;;;;13.17;36.38;102177.75;5055120;28;45397;-55
2022/03/23 02:48:20;;;;;;;;;37.00;31.00;;;;;13.11;36.38;102162.81;5055461;28;45439;-57
2022/03/23 02:50:45;;;;;;;;;29.75;22.50;;;;;13.18;35.72;102183.06;5071374;28;45334;-50
2022/03/23 03:01:53;;;;;;;;;24.20;21.00;;;;;12.86;36.20;102180.56;5055785;28;45373;-57
2022/03/23 03:04:19;;;;;;;;;36.20;31.80;;;;;12.86;36.37;102187.97;5030244;28;45417;-56
2022/03/23 03:06:46;;;;;;;;;32.60;27.80;;;;;12.83;36.36;102189.22;5033307;28;45417;-55
2022/03/23 03:09:12;;;;;;;;;39.60;33.00;;;;;12.82;36.65;102194.91;5034065;28;45382;-54
2022/03/23 03:11:38;;;;;;;;;33.60;31.40;;;;;12.86;36.33;102191.56;5030642;28;45534;-55
2022/03/23 03:14:03;;;;;;;;;34.25;30.00;;;;;12.54;36.28;102149.63;5032688;28;45611;-54
2022/03/23 03:16:29;;;;;;;;;35.75;32.00;;;;;12.73;36.40;102186.75;5051238;28;46550;-55
2022/03/23 03:18:54;;;;;;;;;30.00;26.75;;;;;12.77;36.21;102202.88;5037105;28;45407;-55
2022/03/23 03:21:20;;;;;;;;;36.25;26.75;;;;;12.41;36.35;102163.19;5037759;28;45810;-54
2022/03/23 03:23:46;;;;;;;;;38.50;33.50;;;;;12.60;36.32;102209.44;5037312;28;45750;-54
2022/03/23 03:26:12;;;;;;;;;38.00;32.75;;;;;12.57;36.60;102207.09;5019400;28;47091;-56
2022/03/23 03:28:38;;;;;;;;;41.00;33.20;;;;;12.40;36.18;102197.28;5037220;28;45687;-57
2022/03/23 03:31:05;;;;;;;;;31.60;28.00;;;;;12.42;36.28;102212.56;5038816;28;45469;-56
2022/03/23 03:33:31;;;;;;;;;27.60;27.60;;;;;12.27;36.17;102203.47;5037425;28;45735;-57
2022/03/23 03:35:56;;;;;;;;;33.00;26.25;;;;;12.22;37.00;102215.00;5020417;28;45836;-55
2022/03/23 03:38:21;;;;;;;;;30.00;26.75;;;;;12.26;37.16;102219.09;5038205;28;45387;-56
2022/03/23 03:40:47;;;;;;;;;33.00;29.50;;;;;12.00;37.17;102178.22;5038540;28;45698;-55
2022/03/23 03:43:12;;;;;;;;;34.25;28.00;;;;;12.26;36.61;102218.22;5038627;28;45881;-55
2022/03/23 03:45:38;;;;;;;;;33.75;26.00;;;;;12.11;37.30;102198.97;5052367;28;46225;-53
2022/03/23 03:48:04;;;;;;;;;30.25;27.75;;;;;12.00;36.68;102186.47;5058234;28;45244;-55
2022/03/23 03:50:29;;;;;;;;;35.00;31.75;;;;;12.13;36.63;102218.88;5040338;28;45380;-56
2022/03/23 03:52:55;;;;;;;;;24.00;20.25;;;;;11.93;36.50;102200.13;5058467;28;45320;-55
2022/03/23 03:55:20;;;;;;;;;40.25;31.50;;;;;12.08;36.93;102224.97;5057485;28;45489;-54
2022/03/23 03:57:46;;;;;;;;;33.25;30.50;;;;;12.14;37.09;102237.09;5039958;28;45335;-58
2022/03/23 04:00:15;;;;;;;;;27.20;25.80;;;;;11.94;36.81;102215.56;5058175;28;45386;-54
2022/03/23 04:02:40;;;;;;;;;35.40;27.20;;;;;12.04;37.29;102238.22;5073700;28;45396;-57
2022/03/23 04:05:06;;;;;;;;;19.25;16.00;;;;;12.01;37.16;102226.72;5057758;28;45452;-54
2022/03/23 04:07:34;;;;;;;;;37.50;34.00;;;;;11.91;36.62;102241.56;5057698;28;45434;-53
2022/03/23 04:10:04;;;;;;;;;30.40;27.80;;;;;11.94;37.36;102240.34;5058150;28;45841;-53
2022/03/23 04:12:29;;;;;;;;;27.40;24.60;;;;;11.87;37.01;102231.13;5056569;28;45579;-54
2022/03/23 04:14:55;;;;;;;;;33.25;29.50;;;;;11.96;36.97;102243.78;5057557;28;45449;-58
2022/03/23 04:17:20;;;;;;;;;37.75;31.75;;;;;11.77;37.20;102223.97;5057681;28;45377;-56
2022/03/23 04:19:46;;;;;;;;;31.00;25.50;;;;;11.88;37.42;102241.94;5057695;28;45367;-54
2022/03/23 04:22:12;;;;;;;;;30.00;26.50;;;;;11.83;37.79;102246.25;5057979;28;45571;-53
2022/03/23 04:24:38;;;;;;;;;38.20;30.60;;;;;11.84;37.03;102253.50;5056962;28;46789;-53
2022/03/23 04:27:04;;;;;;;;;30.75;24.25;;;;;11.81;37.27;102254.72;5072669;28;45741;-53
2022/03/23 04:29:29;;;;;;;;;31.00;28.40;;;;;11.80;37.42;102250.25;5057336;28;45332;-54
2022/03/23 04:31:55;;;;;;;;;30.50;27.25;;;;;11.73;37.42;102249.25;5057589;28;45422;-58
2022/03/23 04:34:20;;;;;;;;;29.50;27.75;;;;;11.73;37.23;102255.63;5057190;28;46272;-56
2022/03/23 04:36:46;;;;;;;;;31.50;28.75;;;;;11.76;37.65;102263.53;5057262;28;45423;-52
2022/03/23 04:39:11;;;;;;;;;37.00;28.75;;;;;11.75;37.94;102253.53;5057401;28;45318;-54
2022/03/23 04:41:37;;;;;;;;;38.25;31.75;;;;;11.68;38.00;102258.06;5057303;28;45621;-57
2022/03/23 04:44:02;;;;;;;;;35.00;28.50;;;;;11.65;38.03;102253.78;5057009;28;45413;-56
2022/03/23 04:46:28;;;;;;;;;29.50;28.00;;;;;11.48;37.40;102231.03;5057345;28;45945;-55
2022/03/23 04:48:54;;;;;;;;;32.75;24.75;;;;;11.64;38.10;102251.22;5057129;28;45394;-53
2022/03/23 04:51:19;;;;;;;;;33.75;30.75;;;;;11.69;37.97;102268.03;5057495;28;45231;-56
2022/03/23 04:53:45;;;;;;;;;28.75;28.75;;;;;11.72;37.86;102267.66;5056659;28;45492;-58
2022/03/23 04:56:11;;;;;;;;;35.50;27.75;;;;;11.47;37.28;102229.31;5057052;28;45424;-55
2022/03/23 04:58:36;;;;;;;;;30.20;24.60;;;;;11.62;38.39;102256.91;5055876;28;45534;-54
2022/03/23 05:01:02;;;;;;;;;28.00;28.00;;;;;11.47;37.50;102242.25;5056401;28;45394;-56
2022/03/23 05:03:28;;;;;;;;;37.80;27.60;;;;;11.69;38.05;102269.94;5038871;28;47958;-52
2022/03/23 05:05:54;;;;;;;;;29.00;26.50;;;;;11.70;38.30;102278.00;5057064;28;45473;-57
2022/03/23 05:08:19;;;;;;;;;29.50;29.25;;;;;11.66;37.75;102257.41;5057387;28;45818;-56
2022/03/23 05:10:45;;;;;;;;;27.00;27.00;;;;;11.75;38.09;102271.97;5057275;28;45354;-53
2022/03/23 05:13:11;;;;;;;;;34.50;28.50;;;;;11.75;37.83;102272.78;5056916;28;46679;-52
2022/03/23 05:15:36;;;;;;;;;30.25;28.00;;;;;11.73;37.68;102266.63;5056645;28;45612;-57
2022/03/23 05:18:03;;;;;;;;;29.75;27.50;;;;;11.44;37.79;102229.69;5057072;28;45478;-54
2022/03/23 05:20:29;;;;;;;;;29.80;24.60;;;;;11.60;37.88;102261.75;5056002;28;45501;-55
2022/03/23 05:22:54;;;;;;;;;28.50;25.00;;;;;11.69;37.01;102275.44;5056633;28;45472;-58
2022/03/23 05:25:21;;;;;;;;;31.25;28.75;;;;;11.72;37.70;102278.66;5056844;28;45532;-51
2022/03/23 05:27:46;;;;;;;;;27.60;24.20;;;;;11.51;37.58;102238.06;5038711;28;45353;-55
2022/03/23 05:30:12;;;;;;;;;33.00;27.00;;;;;11.74;37.65;102279.34;5056883;28;45313;-56
2022/03/23 05:32:39;;;;;;;;;33.60;28.00;;;;;11.57;37.25;102250.25;5038287;28;47526;-55
2022/03/23 05:35:05;;;;;;;;;32.40;29.60;;;;;11.71;37.81;102278.84;5056244;28;45446;-58
2022/03/23 05:37:31;;;;;;;;;27.80;27.60;;;;;11.50;37.51;102245.47;5027953;28;45610;-55
2022/03/23 05:39:56;;;;;;;;;30.00;25.75;;;;;11.73;37.48;102287.75;5055360;28;45423;-53
2022/03/23 05:42:22;;;;;;;;;25.00;22.50;;;;;11.73;37.97;102279.50;5038230;28;45566;-56
2022/03/23 05:44:48;;;;;;;;;23.00;22.00;;;;;11.74;37.77;102284.84;5055681;28;45327;-66
2022/03/23 05:47:13;;;;;;;;;25.75;24.50;;;;;11.74;37.32;102281.25;5038588;28;45345;-64
2022/03/23 05:49:39;;;;;;;;;28.25;25.50;;;;;11.78;37.03;102285.31;5038734;28;45425;-62
2022/03/23 05:52:05;;;;;;;;;27.75;24.00;;;;;11.75;37.32;102281.03;5055603;28;46308;-62
2022/03/23 05:54:30;;;;;;;;;29.25;26.50;;;;;11.76;38.00;102281.91;5055964;28;45416;-62
2022/03/23 05:56:56;;;;;;;;;24.25;22.75;;;;;11.70;38.01;102280.75;5055841;28;45533;-63
2022/03/23 05:59:22;;;;;;;;;34.00;28.25;;;;;11.55;37.74;102246.81;5038055;28;45532;-63
2022/03/23 06:01:47;;;;;;;;;37.25;29.75;;;;;11.79;38.11;102274.16;5056047;28;45483;-62
2022/03/23 06:04:13;;;;;;;;;33.50;24.25;;;;;11.64;38.03;102252.06;5055845;28;45407;-62
2022/03/23 06:06:39;;;;;;;;;26.25;25.00;;;;;11.69;38.30;102248.78;5056402;28;45456;-62
2022/03/23 06:09:04;;;;;;;;;28.40;27.00;;;;;11.84;37.75;102281.00;5037998;28;45401;-62
2022/03/23 06:11:30;;;;;;;;;30.75;25.50;;;;;11.63;37.83;102249.53;5055817;28;46479;-64
2022/03/23 06:13:56;;;;;;;;;29.00;25.25;;;;;11.76;38.14;102265.41;5055531;28;45674;-64
2022/03/23 06:16:21;;;;;;;;;28.00;24.20;;;;;11.91;38.37;102301.25;5055818;28;45382;-63
2022/03/23 06:18:47;;;;;;;;;34.75;29.00;;;;;11.93;38.18;102299.16;5054923;28;45422;-64
2022/03/23 06:21:12;;;;;;;;;29.50;28.75;;;;;11.95;38.36;102313.59;5055701;28;46404;-62
2022/03/23 06:23:38;;;;;;;;;28.25;26.50;;;;;11.98;37.71;102313.22;5037671;28;45408;-62
2022/03/23 06:26:04;;;;;;;;;35.00;29.00;;;;;11.85;38.30;102291.81;5055879;28;45365;-64
2022/03/23 06:28:30;;;;;;;;;31.00;24.00;;;;;11.80;38.13;102303.38;5055284;28;45335;-64
2022/03/23 06:30:55;;;;;;;;;21.00;17.75;;;;;11.93;38.02;102321.16;5037460;28;45393;-63
2022/03/23 06:33:21;;;;;;;;;33.75;30.25;;;;;11.92;38.18;102325.81;5055219;28;45371;-64
2022/03/23 06:35:46;;;;;;;;;38.50;33.75;;;;;11.90;37.69;102327.91;5037728;28;45479;-65
2022/03/23 06:38:13;;;;;;;;;29.75;26.25;;;;;11.89;38.05;102323.44;5038076;28;45623;-60
2022/03/23 06:40:38;;;;;;;;;39.60;32.80;;;;;11.91;38.13;102323.25;5052624;28;46490;-61
2022/03/23 06:43:04;;;;;;;;;31.00;29.25;;;;;11.79;38.15;102314.53;5054358;28;45378;-61
2022/03/23 06:45:29;;;;;;;;;34.25;30.50;;;;;11.89;38.67;102325.31;5037294;28;45390;-65
2022/03/23 06:47:55;;;;;;;;;35.25;30.25;;;;;11.92;38.63;102335.97;5071365;28;45632;-65
2022/03/23 06:50:21;;;;;;;;;36.00;32.60;;;;;11.85;38.31;102329.50;5054755;28;46336;-64
2022/03/23 06:52:46;;;;;;;;;34.75;30.75;;;;;11.91;39.15;102335.09;5054869;28;45330;-64
2022/03/23 06:55:12;;;;;;;;;37.25;32.25;;;;;11.58;38.63;102285.78;5055251;28;45388;-65
2022/03/23 06:57:37;;;;;;;;;32.75;29.25;;;;;11.94;38.12;102347.66;5071461;28;45630;-66
2022/03/23 07:00:12;;;;;;;;;38.00;35.00;;;;;11.96;38.58;102347.47;5055400;28;45587;-64
2022/03/23 07:02:44;;;;;;;;;37.60;32.60;;;;;11.95;38.25;102352.09;5070288;28;45369;-64
2022/03/23 07:05:10;;;;;;;;;35.20;31.00;;;;;11.92;38.87;102353.31;5055548;28;45390;-64
2022/03/23 07:07:36;;;;;;;;;43.00;36.20;;;;;11.91;38.31;102356.28;5055542;28;45303;-62
2022/03/23 07:10:06;;;;;;;;;31.40;29.80;;;;;11.95;38.88;102346.59;5055169;28;45486;-62
2022/03/23 07:12:31;;;;;;;;;38.00;32.00;;;;;11.96;37.83;102362.09;5055275;28;45377;-65
2022/03/23 07:14:57;;;;;;;;;34.50;31.00;;;;;11.87;38.40;102355.78;5054953;28;45724;-64
2022/03/23 07:17:23;;;;;;;;;34.75;30.25;;;;;11.76;37.71;102359.81;5037833;28;45354;-63
2022/03/23 07:19:49;;;;;;;;;32.60;26.20;;;;;11.72;38.68;102363.06;5054916;28;46652;-61
2022/03/23 07:22:15;;;;;;;;;33.00;29.75;;;;;11.62;37.96;102328.41;5055261;28;45323;-65
2022/03/23 07:24:41;;;;;;;;;27.80;27.20;;;;;11.88;37.76;102363.00;5055111;28;45383;-62
2022/03/23 07:27:07;;;;;;;;;39.40;30.60;;;;;11.92;36.81;102358.81;5055233;28;45585;-63
2022/03/23 07:29:32;;;;;;;;;29.25;26.50;;;;;11.96;37.44;102353.84;5054946;28;45354;-64
2022/03/23 07:31:58;;;;;;;;;27.50;25.50;;;;;11.91;37.17;102351.59;5037195;28;45267;-61
2022/03/23 07:34:23;;;;;;;;;30.75;25.00;;;;;11.69;37.30;102325.78;5070966;28;45288;-63
2022/03/23 07:36:49;;;;;;;;;28.75;25.75;;;;;11.95;37.49;102359.53;5054941;28;45407;-61
2022/03/23 07:39:20;;;;;;;;;31.25;27.00;;;;;12.02;37.25;102363.25;5054924;28;46087;-62
2022/03/23 07:41:49;;;;;;;;;28.40;26.60;;;;;12.10;36.94;102362.38;5054820;28;45331;-63
2022/03/23 07:44:16;;;;;;;;;28.20;26.20;;;;;11.97;37.10;102341.78;5054886;28;45402;-62
2022/03/23 07:46:41;;;;;;;;;34.20;28.80;;;;;12.17;36.90;102364.19;5055273;28;45424;-63
2022/03/23 07:49:07;;;;;;;;;29.25;27.00;;;;;12.15;36.66;102357.16;5036601;28;48212;-61
2022/03/23 07:51:32;;;;;;;;;28.00;23.50;;;;;12.18;36.58;102359.56;5054857;28;45434;-62
2022/03/23 07:53:57;;;;;;;;;33.00;29.50;;;;;12.19;36.38;102364.91;5054944;28;45349;-61
2022/03/23 07:56:23;;;;;;;;;27.50;25.25;;;;;12.23;36.39;102379.16;5054392;28;45508;-64
2022/03/23 07:58:49;;;;;;;;;35.00;28.50;;;;;12.19;35.65;102384.16;5010507;28;46435;-63
2022/03/23 08:01:15;;;;;;;;;26.50;26.00;;;;;12.25;36.35;102388.06;5050947;28;45385;-61
2022/03/23 08:03:41;;;;;;;;;29.20;26.00;;;;;12.31;36.29;102390.09;5038710;28;45384;-62
2022/03/23 08:06:06;;;;;;;;;29.20;27.80;;;;;12.39;36.45;102385.56;5039641;28;45663;-60
2022/03/23 08:08:32;;;;;;;;;30.75;27.50;;;;;12.45;36.11;102395.84;5057881;28;46134;-61
2022/03/23 08:10:58;;;;;;;;;34.00;29.00;;;;;12.47;36.29;102394.63;5057656;28;45256;-63
2022/03/23 08:13:23;;;;;;;;;26.25;26.25;;;;;12.51;35.89;102395.09;5057695;28;45307;-62
2022/03/23 08:15:49;;;;;;;;;25.50;25.25;;;;;12.13;35.81;102328.97;5057462;28;45330;-62
2022/03/23 08:18:17;;;;;;;;;36.25;28.50;;;;;12.23;36.01;102357.13;5057598;28;45354;-63
2022/03/23 08:20:43;;;;;;;;;32.80;30.00;;;;;12.29;36.14;102358.28;5057662;28;45433;-61
2022/03/23 08:23:09;;;;;;;;;29.00;27.25;;;;;12.53;36.39;102395.78;5057840;28;45386;-63
2022/03/23 08:25:38;;;;;;;;;30.00;27.20;;;;;12.49;36.88;102368.78;5057928;28;45311;-64
2022/03/23 08:28:05;;;;;;;;;36.00;31.60;;;;;12.71;36.30;102394.59;5056994;28;46008;-62
2022/03/23 08:30:30;;;;;;;;;37.00;33.60;;;;;12.57;36.52;102368.72;5057427;28;45465;-62
2022/03/23 08:32:56;;;;;;;;;31.50;27.25;;;;;12.79;37.08;102396.41;5057394;28;45448;-61
2022/03/23 08:35:23;;;;;;;;;38.25;30.25;;;;;12.81;36.55;102397.94;5057654;28;45324;-64
2022/03/23 08:37:50;;;;;;;;;36.60;32.40;;;;;12.85;36.41;102398.41;5039250;28;47222;-64
2022/03/23 08:40:15;;;;;;;;;35.20;29.80;;;;;12.86;36.47;102398.25;5057055;28;45386;-63
2022/03/23 08:42:41;;;;;;;;;35.00;33.00;;;;;12.74;36.16;102373.03;5054603;28;45370;-62
2022/03/23 08:45:07;;;;;;;;;32.75;30.00;;;;;12.96;36.05;102397.13;5025053;28;45299;-63
2022/03/23 08:47:33;;;;;;;;;32.20;27.40;;;;;13.01;35.13;102405.66;5056725;28;46030;-61
2022/03/23 08:49:58;;;;;;;;;28.25;24.50;;;;;13.07;35.34;102399.41;5057296;28;45367;-59
2022/03/23 08:52:24;;;;;;;;;29.25;27.00;;;;;12.95;34.66;102373.34;5033041;28;45978;-60
2022/03/23 08:54:50;;;;;;;;;25.20;21.20;;;;;13.08;34.17;102395.59;5055056;28;45389;-62
2022/03/23 08:57:16;;;;;;;;;26.50;24.25;;;;;12.97;33.85;102372.13;5054515;28;45674;-63
2022/03/23 08:59:41;;;;;;;;;26.50;26.50;;;;;13.05;34.28;102395.13;5043739;28;46009;-60
2022/03/23 09:02:07;;;;;;;;;24.75;23.25;;;;;13.00;34.13;102380.03;5032167;28;45445;-54
2022/03/23 09:04:32;;;;;;;;;26.50;23.75;;;;;13.06;34.34;102388.56;5056549;28;45596;-59
2022/03/23 09:06:58;;;;;;;;;26.75;24.25;;;;;13.19;33.69;102407.22;5054910;28;46152;-63
2022/03/23 09:09:23;;;;;;;;;24.75;21.50;;;;;13.22;34.13;102409.59;5054574;28;45433;-58
2022/03/23 09:11:49;;;;;;;;;26.25;25.00;;;;;13.28;34.38;102404.19;5038148;28;45394;-58
2022/03/23 09:14:14;;;;;;;;;28.25;24.25;;;;;13.14;33.93;102364.53;5054493;28;45671;-57
2022/03/23 09:16:40;;;;;;;;;30.00;21.25;;;;;13.23;33.59;102357.03;5055809;28;45702;-56
2022/03/23 09:19:06;;;;;;;;;20.25;19.75;;;;;13.53;33.45;102398.44;5056014;28;45267;-61
2022/03/23 09:21:32;;;;;;;;;23.75;22.50;;;;;13.50;33.12;102389.69;5053959;28;45313;-66
2022/03/23 09:23:58;;;;;;;;;24.60;23.20;;;;;13.37;33.13;102355.31;5055279;28;45587;-63
2022/03/23 09:26:24;;;;;;;;;22.25;20.25;;;;;13.71;33.00;102396.31;5036652;28;47395;-66
2022/03/23 09:28:51;;;;;;;;;25.00;21.40;;;;;13.80;33.13;102395.13;5056196;28;45347;-64
2022/03/23 09:31:17;;;;;;;;;23.60;20.00;;;;;13.79;32.73;102380.50;5056788;28;45432;-62
2022/03/23 09:33:43;;;;;;;;;20.25;18.25;;;;;14.01;32.50;102399.84;5053879;28;45404;-61
2022/03/23 09:37:47;;;;;;;;;27.80;24.60;;;;;14.05;32.62;102387.34;5056146;28;45350;-63
2022/03/23 09:38:54;;;;;;;;;24.00;18.00;;;;;14.25;32.41;102406.06;5041294;28;45422;-62
2022/03/23 09:41:20;;;;;;;;;22.00;20.50;;;;;14.34;31.93;102398.50;5038664;28;45368;-64
2022/03/23 09:43:45;;;;;;;;;23.00;20.25;;;;;14.43;32.02;102407.50;5049943;28;45620;-63
2022/03/23 09:46:11;;;;;;;;;29.50;26.00;;;;;14.49;31.76;102398.44;5037004;28;46008;-63
2022/03/23 09:48:37;;;;;;;;;24.20;22.20;;;;;14.57;31.71;102397.47;5055906;28;45427;-64
2022/03/23 09:51:02;;;;;;;;;30.00;23.00;;;;;14.62;31.94;102400.50;5056270;28;45327;-63
2022/03/23 09:53:28;;;;;;;;;26.50;20.50;;;;;14.71;32.55;102402.03;5072246;28;45231;-63
2022/03/23 09:55:54;;;;;;;;;25.00;21.50;;;;;14.82;31.18;102397.03;5067805;28;47572;-64
2022/03/23 09:58:19;;;;;;;;;22.00;22.00;;;;;14.94;30.71;102397.38;5025843;28;45575;-63
2022/03/23 10:00:45;;;;;;;;;26.25;21.50;;;;;14.90;30.41;102385.88;5015594;28;45442;-63
2022/03/23 10:03:13;;;;;;;;;21.50;21.50;;;;;15.10;29.77;102407.28;5016083;28;45469;-60
2022/03/23 10:06:00;;;;;;;;;26.40;24.60;;;;;15.18;29.41;102398.81;5015514;28;46952;-62
2022/03/23 10:08:42;;;;;;;;;22.40;18.40;;;;;15.24;29.67;102395.25;5030734;28;45534;-61
2022/03/23 10:11:29;;;;;;;;;22.20;20.40;;;;;15.33;29.83;102401.47;5014016;28;45401;-62
2022/03/23 10:14:32;;;;;;;;;24.20;20.80;;;;;15.43;30.05;102403.88;5015721;28;45315;-63
2022/03/23 10:17:35;;;;;;;;;21.80;20.60;;;;;15.52;29.88;102394.31;5014963;28;45987;-63
2022/03/23 10:20:01;;;;;;;;;21.20;20.20;;;;;15.63;30.68;102398.41;5030394;28;45583;-62
2022/03/23 10:22:27;;;;;;;;;23.50;21.50;;;;;15.65;30.48;102382.47;5013619;28;45493;-63
2022/03/23 10:24:53;;;;;;;;;19.40;18.20;;;;;15.82;30.08;102390.41;5014780;28;45366;-61
2022/03/23 10:27:20;;;;;;;;;26.00;24.00;;;;;15.86;29.41;102386.19;5013790;28;47237;-62
2022/03/23 10:29:54;;;;;;;;;24.40;20.20;;;;;15.94;29.73;102374.06;5014901;28;45541;-61
2022/03/23 10:32:23;;;;;;;;;17.20;17.20;;;;;16.07;29.41;102385.19;5013884;28;45362;-61
2022/03/23 10:34:53;;;;;;;;;25.00;23.20;;;;;16.10;28.81;102382.03;4996796;28;45686;-62
2022/03/23 10:37:26;;;;;;;;;47.40;33.20;;;;;16.20;28.59;102378.84;5030377;28;45497;-62
2022/03/23 10:39:52;;;;;;;;;23.60;20.40;;;;;16.32;28.73;102373.53;5014874;28;45517;-64
2022/03/23 10:42:19;;;;;;;;;22.40;21.40;;;;;16.25;28.11;102350.50;5015074;28;45422;-61
2022/03/23 10:44:45;;;;;;;;;24.20;21.40;;;;;16.50;28.61;102372.06;5010726;28;45423;-62
2022/03/23 10:47:31;;;;;;;;;21.50;19.25;;;;;16.62;27.70;102373.13;4998844;28;46011;-62
2022/03/23 10:49:57;;;;;;;;;21.80;20.20;;;;;16.71;27.95;102375.69;5015170;28;45309;-62
2022/03/23 10:52:22;;;;;;;;;25.25;20.25;;;;;16.74;27.79;102353.94;5013253;28;45359;-56
2022/03/23 10:54:59;;;;;;;;;20.00;20.00;;;;;16.77;26.62;102366.53;5016007;28;45548;-60
2022/03/23 10:57:58;;;;;;;;;25.40;24.80;;;;;16.80;27.77;102364.16;5014772;28;45699;-61
2022/03/23 11:00:35;;;;;;;;;24.00;21.40;;;;;16.92;26.90;102367.13;5012656;28;45453;-60
2022/03/23 11:03:02;;;;;;;;;24.20;22.60;;;;;17.00;26.49;102354.09;5014899;28;45384;-60
2022/03/23 11:05:41;;;;;;;;;25.80;23.60;;;;;17.09;27.19;102350.09;5015282;28;45319;-60
2022/03/23 11:08:20;;;;;;;;;19.40;18.80;;;;;17.25;26.80;102356.22;5012891;28;46161;-60
2022/03/23 11:16:25;;;;;;;;;19.20;17.80;;;;;17.05;25.72;102272.00;5015395;28;45311;-61
2022/03/23 11:19:11;;;;;;;;;25.60;20.60;;;;;17.55;25.52;102344.59;5014745;28;46471;-61
2022/03/23 11:22:05;;;;;;;;;22.20;18.80;;;;;17.68;25.82;102344.53;5007982;28;45437;-61